
Distance (Route):
Temperature : -56.7°C
Humidity : 0.4%
Pressure : 54.6hPa| Receiver | Frames | First received | Last received |
|---|---|---|---|
| AUTORXJP | 44 | 2026-09-03 13:52:16 | 2026-09-03 14:15:03 |
| Receiver | Date | Latitude | Longitude | Direction | Speed | Altitude | Climb | Temperature | Humidity | Pressure | Voltage | Killtimer | Uptime | BKT | XDATA |
|---|---|---|---|---|---|---|---|---|---|---|---|---|---|---|---|
| AUTORXJP | 2026-09-03 14:15:03 | 43.23083 | 1.87239 | 112° | 27km/h | 20232m | -18.3m/s | -56.7°C | 0.4% | 54.6hPa | 0V | 00:00:00 | 00:00:00 | 00:00:00 | |
| AUTORXJP | 2026-09-03 14:14:32 | 43.23140 | 1.87090 | 149° | 4km/h | 20830m | -19.7m/s | -55.3°C | 0.3% | 49.4hPa | 0V | 00:00:00 | 00:00:00 | 00:00:00 | |
| AUTORXJP | 2026-09-03 14:14:01 | 43.23136 | 1.87111 | 81° | 4km/h | 21477m | -18.7m/s | -56.5°C | 0.3% | 44.4hPa | 0V | 00:00:00 | 00:00:00 | 00:00:00 | |
| AUTORXJP | 2026-09-03 14:13:30 | 43.23168 | 1.87037 | 231° | 4km/h | 22104m | -21.6m/s | -54.2°C | 0.4% | 39.9hPa | 0V | 00:00:00 | 00:00:00 | 00:00:00 | |
| AUTORXJP | 2026-09-03 14:12:59 | 43.23185 | 1.87009 | 178° | 18km/h | 22730m | -19.8m/s | -53.5°C | 0.4% | 36.0hPa | 0V | 00:00:00 | 00:00:00 | 00:00:00 | |
| AUTORXJP | 2026-09-03 14:12:28 | 43.23205 | 1.87097 | 22° | 20km/h | 23388m | -22.0m/s | -52.9°C | 0.5% | 32.2hPa | 0V | 00:00:00 | 00:00:00 | 00:00:00 | |
| AUTORXJP | 2026-09-03 14:11:57 | 43.23218 | 1.87103 | 302° | 18km/h | 24107m | -23.2m/s | -51.9°C | 0.5% | 28.5hPa | 0V | 00:00:00 | 00:00:00 | 00:00:00 | |
| AUTORXJP | 2026-09-03 14:11:26 | 43.23195 | 1.87156 | 350° | 9km/h | 25030m | -24.1m/s | -51.1°C | 0.6% | 24.4hPa | 0V | 00:00:00 | 00:00:00 | 00:00:00 | |
| AUTORXJP | 2026-09-03 14:10:55 | 43.23182 | 1.87150 | 274° | 2km/h | 25702m | -25.4m/s | -48.4°C | 0.7% | 21.7hPa | 0V | 00:00:00 | 00:00:00 | 00:00:00 | |
| AUTORXJP | 2026-09-03 14:10:24 | 43.23159 | 1.87145 | 140° | 4km/h | 26597m | -26.0m/s | -49.2°C | 0.8% | 18.5hPa | 0V | 00:00:00 | 00:00:00 | 00:00:00 | |
| AUTORXJP | 2026-09-03 14:09:53 | 43.23103 | 1.87099 | 18° | 11km/h | 27465m | -24.2m/s | -47.0°C | 1.0% | 15.9hPa | 0V | 00:00:00 | 00:00:00 | 00:00:00 | |
| AUTORXJP | 2026-09-03 14:09:21 | 43.23090 | 1.87025 | 107° | 4km/h | 28291m | -24.3m/s | -46.4°C | 1.0% | 13.7hPa | 0V | 00:00:00 | 00:00:00 | 00:00:00 | |
| AUTORXJP | 2026-09-03 14:08:50 | 43.23119 | 1.87070 | 282° | 11km/h | 29122m | -24.8m/s | -45.9°C | 1.2% | 11.8hPa | 0V | 00:00:00 | 00:00:00 | 00:00:00 | |
| AUTORXJP | 2026-09-03 14:08:19 | 43.23191 | 1.87122 | 125° | 11km/h | 29435m | 5.1m/s | -45.5°C | 1.4% | 11.1hPa | 0V | 00:00:00 | 00:00:00 | 00:00:00 | |
| AUTORXJP | 2026-09-03 14:07:48 | 43.23236 | 1.87174 | 194° | 15km/h | 29242m | 4.7m/s | -45.1°C | 1.4% | 11.6hPa | 0V | 00:00:00 | 00:00:00 | 00:00:00 | |
| AUTORXJP | 2026-09-03 14:07:17 | 43.23293 | 1.87246 | 160° | 20km/h | 29049m | 6.6m/s | -45.5°C | 1.4% | 11.9hPa | 0V | 00:00:00 | 00:00:00 | 00:00:00 | |
| AUTORXJP | 2026-09-03 14:06:46 | 43.23264 | 1.87279 | 303° | 20km/h | 28861m | 4.3m/s | -45.8°C | 1.5% | 12.4hPa | 0V | 00:00:00 | 00:00:00 | 00:00:00 | |
| AUTORXJP | 2026-09-03 14:06:15 | 43.23243 | 1.87358 | 90° | 2km/h | 28671m | 5.6m/s | -45.1°C | 1.4% | 12.8hPa | 0V | 00:00:00 | 00:00:00 | 00:00:00 | |
| AUTORXJP | 2026-09-03 14:05:44 | 43.23284 | 1.87373 | 102° | 18km/h | 28477m | 5.4m/s | -45.0°C | 1.4% | 13.3hPa | 0V | 00:00:00 | 00:00:00 | 00:00:00 | |
| AUTORXJP | 2026-09-03 14:05:13 | 43.23300 | 1.87286 | 90° | 2km/h | 28288m | 6.1m/s | -46.1°C | 1.3% | 13.7hPa | 0V | 00:00:00 | 00:00:00 | 00:00:00 | |
| AUTORXJP | 2026-09-03 14:04:42 | 43.23265 | 1.87248 | 257° | 7km/h | 28093m | 6.0m/s | -46.0°C | 1.4% | 14.3hPa | 0V | 00:00:00 | 00:00:00 | 00:00:00 | |
| AUTORXJP | 2026-09-03 14:04:11 | 43.23266 | 1.87276 | 90° | 11km/h | 27901m | 6.8m/s | -46.2°C | 1.4% | 14.7hPa | 0V | 00:00:00 | 00:00:00 | 00:00:00 | |
| AUTORXJP | 2026-09-03 14:03:40 | 43.23275 | 1.87170 | 65° | 18km/h | 27703m | 4.7m/s | -46.8°C | 1.4% | 15.3hPa | 0V | 00:00:00 | 00:00:00 | 00:00:00 | |
| AUTORXJP | 2026-09-03 14:03:09 | 43.23227 | 1.87097 | 120° | 7km/h | 27508m | 7.3m/s | -46.0°C | 1.4% | 15.8hPa | 0V | 00:00:00 | 00:00:00 | 00:00:00 | |
| AUTORXJP | 2026-09-03 14:02:37 | 43.23163 | 1.87086 | 37° | 15km/h | 27317m | 4.9m/s | -46.1°C | 1.4% | 16.4hPa | 0V | 00:00:00 | 00:00:00 | 00:00:00 | |
| AUTORXJP | 2026-09-03 14:02:06 | 43.23110 | 1.87026 | 335° | 7km/h | 27124m | 5.4m/s | -46.4°C | 1.4% | 17.0hPa | 0V | 00:00:00 | 00:00:00 | 00:00:00 | |
| AUTORXJP | 2026-09-03 14:01:04 | 43.23098 | 1.87026 | 12° | 2km/h | 26818m | 4.9m/s | -48.1°C | 1.4% | 17.9hPa | 0V | 00:00:00 | 00:00:00 | 00:00:00 | |
| AUTORXJP | 2026-09-03 14:00:33 | 43.23111 | 1.86993 | 96° | 7km/h | 26675m | 4.9m/s | -48.9°C | 1.3% | 18.3hPa | 0V | 00:00:00 | 00:00:00 | 00:00:00 | |
| AUTORXJP | 2026-09-03 14:00:02 | 43.23150 | 1.86948 | 138° | 5km/h | 26529m | 4.3m/s | -49.6°C | 1.4% | 18.8hPa | 0V | 00:00:00 | 00:00:00 | 00:00:00 | |
| AUTORXJP | 2026-09-03 13:59:31 | 43.23164 | 1.86946 | 12° | 0km/h | 26380m | 4.3m/s | -49.4°C | 1.5% | 19.3hPa | 0V | 00:00:00 | 00:00:00 | 00:00:00 | |
| AUTORXJP | 2026-09-03 13:59:00 | 43.23158 | 1.86966 | 106° | 7km/h | 26233m | 4.6m/s | -49.0°C | 1.5% | 19.9hPa | 0V | 00:00:00 | 00:00:00 | 00:00:00 | |
| AUTORXJP | 2026-09-03 13:58:29 | 43.23132 | 1.86930 | 59° | 13km/h | 26082m | 4.5m/s | -49.1°C | 1.5% | 20.4hPa | 0V | 00:00:00 | 00:00:00 | 00:00:00 | |
| AUTORXJP | 2026-09-03 13:57:58 | 43.23029 | 1.86887 | 21° | 11km/h | 25935m | 4.6m/s | -48.9°C | 1.5% | 20.9hPa | 0V | 00:00:00 | 00:00:00 | 00:00:00 | |
| AUTORXJP | 2026-09-03 13:57:27 | 43.22987 | 1.86907 | 149° | 4km/h | 25788m | 4.8m/s | -48.7°C | 1.5% | 21.4hPa | 0V | 00:00:00 | 00:00:00 | 00:00:00 | |
| AUTORXJP | 2026-09-03 13:56:56 | 43.23030 | 1.86932 | 152° | 9km/h | 25642m | 4.7m/s | -49.3°C | 1.5% | 22.0hPa | 0V | 00:00:00 | 00:00:00 | 00:00:00 | |
| AUTORXJP | 2026-09-03 13:56:24 | 43.23049 | 1.86887 | 49° | 13km/h | 25496m | 4.4m/s | -50.2°C | 1.4% | 22.5hPa | 0V | 00:00:00 | 00:00:00 | 00:00:00 | |
| AUTORXJP | 2026-09-03 13:55:53 | 43.22961 | 1.86816 | 10° | 15km/h | 25357m | 4.3m/s | -51.2°C | 1.4% | 23.1hPa | 0V | 00:00:00 | 00:00:00 | 00:00:00 | |
| AUTORXJP | 2026-09-03 13:55:22 | 43.22874 | 1.86808 | 1° | 11km/h | 25209m | 5.3m/s | -51.2°C | 1.4% | 23.7hPa | 0V | 00:00:00 | 00:00:00 | 00:00:00 | |
| AUTORXJP | 2026-09-03 13:54:51 | 43.22821 | 1.86832 | 303° | 4km/h | 25063m | 5.1m/s | -51.2°C | 1.4% | 24.3hPa | 0V | 00:00:00 | 00:00:00 | 00:00:00 | |
| AUTORXJP | 2026-09-03 13:54:20 | 43.22817 | 1.86907 | 266° | 13km/h | 24914m | 4.5m/s | -51.5°C | 1.4% | 24.9hPa | 0V | 00:00:00 | 00:00:00 | 00:00:00 | |
| AUTORXJP | 2026-09-03 13:53:49 | 43.22858 | 1.86986 | 210° | 9km/h | 24762m | 5.0m/s | -51.3°C | 1.5% | 25.6hPa | 0V | 00:00:00 | 00:00:00 | 00:00:00 | |
| AUTORXJP | 2026-09-03 13:53:18 | 43.22920 | 1.87031 | 181° | 15km/h | 24614m | 5.7m/s | -50.9°C | 1.5% | 26.3hPa | 0V | 00:00:00 | 00:00:00 | 00:00:00 | |
| AUTORXJP | 2026-09-03 13:52:47 | 43.22975 | 1.87025 | 28° | 4km/h | 24465m | 4.5m/s | -51.3°C | 1.5% | 26.9hPa | 0V | 00:00:00 | 00:00:00 | 00:00:00 | |
| AUTORXJP | 2026-09-03 13:52:16 | 43.22916 | 1.87048 | 333° | 13km/h | 24321m | 4.2m/s | -51.6°C | 1.6% | 27.6hPa | 0V | 00:00:00 | 00:00:00 | 00:00:00 |